Time;durP1;ratioP1;P1;durP2;ratioP2;P2;SDS_P1;SDS_P2;PMS_P1;PMS_P2;Temp;Humidity;BMP_temperature;BMP_pressure;BME280_temperature;BME280_humidity;BME280_pressure;Samples;Min_cycle;Max_cycle;Signal;HPM_P1;HPM_P2
2023/05/31 00:01:31;;;;;;;13.55;8.10;;;;;;;14.39;78.97;101858.06;4982166;28;20062;-71
2023/05/31 00:03:57;;;;;;;12.80;8.02;;;;;;;14.34;78.76;101855.44;4994902;28;20042;-71
2023/05/31 00:06:22;;;;;;;11.02;6.43;;;;;;;14.27;79.09;101852.88;4984966;28;20042;-71
2023/05/31 00:08:47;;;;;;;12.95;7.38;;;;;;;14.24;79.33;101856.38;4979396;28;20037;-71
2023/05/31 00:11:13;;;;;;;10.38;6.47;;;;;;;14.20;79.53;101853.78;4987912;28;20042;-71
2023/05/31 00:13:38;;;;;;;7.85;5.88;;;;;;;14.15;79.52;101863.38;4990311;28;20061;-71
2023/05/31 00:16:05;;;;;;;9.95;6.78;;;;;;;14.10;79.50;101866.84;4982645;28;20069;-71
2023/05/31 00:18:30;;;;;;;11.82;7.75;;;;;;;14.07;79.88;101868.59;4981269;28;20026;-71
2023/05/31 00:20:56;;;;;;;11.50;7.10;;;;;;;13.99;80.04;101868.63;4980562;28;20096;-71
2023/05/31 00:23:21;;;;;;;9.77;6.88;;;;;;;13.94;80.48;101869.53;4987726;28;20093;-72
2023/05/31 00:25:46;;;;;;;13.95;7.70;;;;;;;13.90;80.38;101868.69;4987682;28;20046;-71
2023/05/31 00:28:12;;;;;;;11.02;6.90;;;;;;;13.88;80.92;101866.97;4983878;28;20038;-71
2023/05/31 00:30:37;;;;;;;14.32;8.10;;;;;;;13.86;80.70;101859.16;4982414;28;20129;-71
2023/05/31 00:33:04;;;;;;;11.15;7.18;;;;;;;13.84;80.64;101857.44;4988485;28;20040;-71
2023/05/31 00:35:29;;;;;;;11.77;7.32;;;;;;;13.80;81.00;101860.94;4980781;28;20511;-71
2023/05/31 00:37:55;;;;;;;13.88;7.88;;;;;;;13.74;81.38;101867.00;4981835;28;20073;-71
2023/05/31 00:40:20;;;;;;;9.85;6.32;;;;;;;13.68;81.47;101867.06;4979982;28;20564;-71
2023/05/31 00:42:45;;;;;;;12.60;6.80;;;;;;;13.66;81.39;101865.31;4985773;28;20030;-70
2023/05/31 00:45:11;;;;;;;11.55;6.93;;;;;;;13.63;81.54;101860.97;4983397;28;20148;-70
2023/05/31 00:47:37;;;;;;;9.90;7.15;;;;;;;13.61;81.71;101860.13;4982209;28;20092;-71
2023/05/31 00:50:03;;;;;;;12.05;7.07;;;;;;;13.59;81.73;101861.00;4981778;28;20042;-71
2023/05/31 00:52:30;;;;;;;15.10;8.00;;;;;;;13.53;81.88;101870.53;4981726;28;20045;-71
2023/05/31 00:54:55;;;;;;;14.48;8.38;;;;;;;13.49;81.91;101870.56;4979929;28;20030;-71
2023/05/31 00:57:22;;;;;;;13.85;8.25;;;;;;;13.45;82.24;101867.09;4987684;28;20523;-71
2023/05/31 00:59:47;;;;;;;12.88;8.15;;;;;;;13.40;82.13;101861.06;4999619;28;20462;-71
2023/05/31 01:02:14;;;;;;;12.85;7.82;;;;;;;13.35;82.19;101864.53;4986431;28;20046;-71
2023/05/31 01:04:39;;;;;;;13.40;7.68;;;;;;;13.28;82.26;101861.09;4987230;28;21108;-71
2023/05/31 01:07:06;;;;;;;11.75;7.47;;;;;;;13.22;82.42;101874.09;4980884;28;20031;-70
2023/05/31 01:09:32;;;;;;;13.90;7.93;;;;;;;13.19;82.57;101874.09;4983693;28;20755;-70
2023/05/31 01:12:15;;;;;;;12.25;7.68;;;;;;;13.18;82.98;101869.75;4985357;28;20046;-71
2023/05/31 01:15:09;;;;;;;10.07;6.82;;;;;;;13.15;82.77;101869.75;4981213;28;20034;-71
2023/05/31 01:17:51;;;;;;;13.55;7.55;;;;;;;13.12;83.01;101871.50;4981999;28;20065;-71
2023/05/31 01:20:20;;;;;;;14.88;8.00;;;;;;;13.10;82.98;101865.44;4982672;28;20565;-71
2023/05/31 01:22:52;;;;;;;12.88;7.82;;;;;;;13.05;83.22;101869.78;4988805;28;20129;-71
2023/05/31 01:25:57;;;;;;;14.25;9.00;;;;;;;13.00;83.10;101873.22;4988060;28;20041;-71
2023/05/31 01:28:25;;;;;;;11.93;7.57;;;;;;;12.96;83.42;101868.03;4978227;28;20527;-71
2023/05/31 01:30:52;;;;;;;11.13;7.50;;;;;;;12.95;83.67;101869.75;4981584;28;20271;-71
2023/05/31 01:33:18;;;;;;;15.75;8.13;;;;;;;12.94;83.40;101869.72;4991056;28;20579;-71
2023/05/31 01:35:44;;;;;;;12.35;7.85;;;;;;;12.94;83.93;101865.41;4976508;28;20113;-71
2023/05/31 01:38:09;;;;;;;14.82;8.15;;;;;;;12.92;83.65;101858.50;4981521;28;20038;-71
2023/05/31 01:40:35;;;;;;;11.85;6.93;;;;;;;12.90;84.05;101857.66;4982317;28;20042;-71
2023/05/31 01:43:04;;;;;;;11.90;7.57;;;;;;;12.89;84.05;101863.69;4986530;28;20476;-69
2023/05/31 01:45:30;;;;;;;14.07;7.85;;;;;;;12.89;84.56;101869.75;4980400;28;20387;-71
2023/05/31 01:48:04;;;;;;;11.60;7.70;;;;;;;12.92;84.74;101868.88;4989074;28;20170;-71
2023/05/31 01:50:33;;;;;;;13.05;7.93;;;;;;;12.94;84.54;101872.31;4977168;28;20038;-71
2023/05/31 01:52:58;;;;;;;14.13;7.78;;;;;;;12.93;84.57;101870.63;4979107;28;20799;-71
2023/05/31 01:55:24;;;;;;;11.18;7.35;;;;;;;12.91;84.64;101867.16;4986839;28;20033;-71
2023/05/31 01:57:51;;;;;;;12.02;7.45;;;;;;;12.88;84.88;101870.59;4998525;28;20042;-71
2023/05/31 02:00:17;;;;;;;11.75;7.00;;;;;;;12.87;84.90;101878.41;4984147;28;20042;-71
2023/05/31 02:02:43;;;;;;;12.82;8.10;;;;;;;12.87;85.17;101870.63;4991585;28;20738;-71
2023/05/31 02:05:11;;;;;;;12.85;7.72;;;;;;;12.89;85.11;101874.06;4982851;28;20042;-71
2023/05/31 02:07:44;;;;;;;11.52;6.90;;;;;;;12.88;84.96;101870.59;4981997;28;20133;-70
2023/05/31 02:10:10;;;;;;;12.50;7.40;;;;;;;12.88;85.45;101865.41;4980494;28;20038;-71
2023/05/31 02:12:36;;;;;;;13.00;6.72;;;;;;;12.89;85.24;101863.69;4985978;28;20038;-71
2023/05/31 02:15:02;;;;;;;16.50;8.13;;;;;;;12.91;85.25;101867.16;4989508;28;20518;-71
2023/05/31 02:17:28;;;;;;;12.48;8.13;;;;;;;12.96;85.27;101868.91;4983596;28;20046;-71
2023/05/31 02:19:55;;;;;;;14.05;8.52;;;;;;;12.98;84.97;101869.75;4983604;28;20054;-71
2023/05/31 02:22:21;;;;;;;16.65;8.65;;;;;;;12.98;84.86;101866.28;4982413;28;20452;-72
2023/05/31 02:24:47;;;;;;;13.13;8.02;;;;;;;12.91;84.78;101867.16;4982911;28;20034;-71
2023/05/31 02:27:13;;;;;;;17.30;8.45;;;;;;;12.85;84.99;101864.56;4989006;28;20078;-71
2023/05/31 02:29:39;;;;;;;11.35;7.65;;;;;;;12.76;84.99;101860.22;4983545;28;20479;-71
2023/05/31 02:32:04;;;;;;;14.60;7.65;;;;;;;12.71;85.34;101864.56;4981787;28;20061;-71
2023/05/31 02:34:30;;;;;;;13.85;8.30;;;;;;;12.64;85.23;101865.44;4989936;28;20073;-71
2023/05/31 02:36:56;;;;;;;12.65;7.45;;;;;;;12.60;85.07;101874.06;4991069;28;20030;-70
2023/05/31 02:39:21;;;;;;;13.73;8.45;;;;;;;12.56;85.78;101869.72;4986274;28;20047;-71
2023/05/31 02:41:47;;;;;;;10.15;6.68;;;;;;;12.52;86.02;101873.22;4998446;28;20050;-71
2023/05/31 02:44:13;;;;;;;13.98;8.20;;;;;;;12.50;85.85;101872.31;4992728;28;20500;-71
2023/05/31 02:46:39;;;;;;;14.23;8.00;;;;;;;12.51;86.40;101870.59;4992953;28;20031;-71
2023/05/31 02:49:06;;;;;;;14.10;8.10;;;;;;;12.47;86.55;101861.94;4988657;28;20034;-71
2023/05/31 02:51:31;;;;;;;13.25;7.55;;;;;;;12.42;86.56;101867.13;4984877;28;20034;-71
2023/05/31 02:53:57;;;;;;;13.30;8.70;;;;;;;12.37;86.76;101868.84;4980700;28;20093;-71
2023/05/31 02:56:23;;;;;;;10.20;7.28;;;;;;;12.33;86.98;101861.94;4990747;28;20042;-71
2023/05/31 02:58:48;;;;;;;14.38;7.38;;;;;;;12.28;87.04;101868.84;4989355;28;20785;-71
2023/05/31 03:01:14;;;;;;;14.93;8.10;;;;;;;12.25;87.09;101871.44;4987932;28;20037;-72
2023/05/31 03:03:40;;;;;;;16.73;8.13;;;;;;;12.22;87.06;101868.81;4987434;28;20030;-72
2023/05/31 03:06:06;;;;;;;15.27;7.80;;;;;;;12.21;86.65;101871.41;4985470;28;20108;-71
2023/05/31 03:08:31;;;;;;;14.82;7.28;;;;;;;12.20;87.03;101874.84;4990970;28;20041;-71
2023/05/31 03:10:57;;;;;;;14.55;8.68;;;;;;;12.17;87.16;101875.69;4979621;28;20042;-71
2023/05/31 03:13:22;;;;;;;11.15;7.28;;;;;;;12.16;87.03;101873.13;4991687;28;20117;-72
2023/05/31 03:15:48;;;;;;;12.98;7.45;;;;;;;12.14;87.29;101880.88;4985391;28;20543;-71
2023/05/31 03:18:15;;;;;;;14.35;8.35;;;;;;;12.14;87.52;101878.28;4983064;28;20042;-72
2023/05/31 03:20:41;;;;;;;14.23;7.63;;;;;;;12.12;87.33;101877.41;4982763;28;20049;-71
2023/05/31 03:23:07;;;;;;;13.88;8.52;;;;;;;12.11;87.58;101875.69;4978589;28;20055;-71
2023/05/31 03:25:32;;;;;;;15.55;9.52;;;;;;;12.11;88.15;101874.84;4981636;28;20576;-71
2023/05/31 03:27:58;;;;;;;15.68;7.72;;;;;;;12.09;88.06;101873.94;4991313;28;20488;-71
2023/05/31 03:30:24;;;;;;;11.85;7.93;;;;;;;12.09;87.94;101872.22;4987171;28;20030;-71
2023/05/31 03:32:49;;;;;;;13.38;8.13;;;;;;;12.08;87.89;101869.66;4988802;28;20086;-72
2023/05/31 03:35:15;;;;;;;14.50;8.13;;;;;;;12.08;87.78;101872.25;5019548;28;20045;-71
2023/05/31 03:37:40;;;;;;;12.70;8.20;;;;;;;12.09;88.33;101866.19;4984750;28;20673;-72
2023/05/31 03:40:06;;;;;;;10.00;6.78;;;;;;;12.08;88.43;101864.47;4978000;28;20033;-71
2023/05/31 03:42:31;;;;;;;12.60;7.60;;;;;;;12.11;88.20;101869.66;4987489;28;20084;-72
2023/05/31 03:44:57;;;;;;;14.52;7.55;;;;;;;12.14;88.10;101870.50;4985172;28;20506;-71
2023/05/31 03:47:23;;;;;;;14.10;7.18;;;;;;;12.20;88.40;101870.53;4983227;28;20038;-72
2023/05/31 03:49:48;;;;;;;12.30;7.38;;;;;;;12.26;87.93;101870.53;4982913;28;20048;-72
2023/05/31 03:52:14;;;;;;;16.10;7.80;;;;;;;12.31;87.86;101863.66;4983115;28;20026;-71
2023/05/31 03:54:40;;;;;;;14.65;8.13;;;;;;;12.38;88.01;101857.59;4988720;28;20109;-72
2023/05/31 03:57:06;;;;;;;13.40;7.32;;;;;;;12.43;87.32;101863.66;4980514;28;20792;-73
2023/05/31 03:59:33;;;;;;;13.75;6.70;;;;;;;12.50;87.39;101863.66;4986558;28;20046;-72
2023/05/31 04:01:58;;;;;;;13.50;7.13;;;;;;;12.56;87.16;101868.84;4985770;28;20034;-73
2023/05/31 04:04:24;;;;;;;12.52;8.15;;;;;;;12.60;87.11;101866.28;4985569;28;20527;-72
2023/05/31 04:06:49;;;;;;;16.10;8.90;;;;;;;12.63;86.61;101868.88;4984621;28;20673;-72
2023/05/31 04:09:14;;;;;;;15.85;8.55;;;;;;;12.67;86.74;101870.59;5000068;28;20038;-71
2023/05/31 04:11:40;;;;;;;13.60;6.78;;;;;;;12.70;86.35;101870.59;5008516;28;20109;-72
2023/05/31 04:14:05;;;;;;;15.10;8.25;;;;;;;12.77;86.68;101874.06;5003391;28;20062;-72
2023/05/31 04:16:30;;;;;;;15.93;8.68;;;;;;;12.82;86.35;101872.34;4995905;28;20050;-72
2023/05/31 04:18:56;;;;;;;14.20;8.40;;;;;;;12.88;86.07;101880.97;4988061;28;20033;-71
2023/05/31 04:21:21;;;;;;;14.63;8.25;;;;;;;12.92;86.02;101869.75;4993799;28;20550;-72
2023/05/31 04:23:47;;;;;;;11.85;7.82;;;;;;;13.00;85.74;101877.56;4985458;28;20157;-71
2023/05/31 04:26:16;;;;;;;11.77;8.73;;;;;;;13.07;85.38;101873.22;4982123;28;20519;-72
2023/05/31 04:28:42;;;;;;;15.30;8.18;;;;;;;13.12;85.14;101871.50;5013731;28;20250;-72
2023/05/31 04:31:08;;;;;;;13.57;7.13;;;;;;;13.16;84.84;101863.69;4981686;28;20041;-72
2023/05/31 04:33:35;;;;;;;14.68;7.72;;;;;;;13.23;84.58;101868.03;4982191;28;20026;-72
2023/05/31 04:36:03;;;;;;;12.02;7.32;;;;;;;13.29;84.63;101867.16;4981471;28;20046;-72
2023/05/31 04:38:28;;;;;;;14.65;8.23;;;;;;;13.35;84.08;101875.81;4983263;28;20042;-72
2023/05/31 04:40:55;;;;;;;12.90;7.25;;;;;;;13.40;83.83;101866.25;4982192;28;20038;-72
2023/05/31 04:43:20;;;;;;;12.10;6.93;;;;;;;13.47;83.64;101870.56;4987198;28;20832;-74
2023/05/31 04:45:47;;;;;;;13.95;6.90;;;;;;;13.52;83.90;101871.44;4977123;28;20134;-72
2023/05/31 04:48:12;;;;;;;13.05;7.20;;;;;;;13.58;84.13;101867.94;5014453;28;20030;-72
2023/05/31 04:50:38;;;;;;;16.38;8.80;;;;;;;13.63;83.56;101875.69;4984271;28;20053;-72
2023/05/31 04:53:04;;;;;;;12.52;8.50;;;;;;;13.70;83.99;101875.69;4981566;28;20042;-72
2023/05/31 04:55:29;;;;;;;16.00;9.50;;;;;;;13.79;84.91;101877.38;4983023;28;20757;-72
2023/05/31 04:57:55;;;;;;;17.40;9.43;;;;;;;13.86;85.10;101876.50;4981365;28;20030;-72
2023/05/31 05:00:20;;;;;;;11.95;8.65;;;;;;;13.89;84.64;101877.34;4979485;28;20030;-62
2023/05/31 05:02:48;;;;;;;13.57;8.77;;;;;;;13.94;84.99;101874.72;4984413;28;20047;-62
2023/05/31 05:05:15;;;;;;;14.60;8.25;;;;;;;13.98;84.61;101879.03;4983806;28;20054;-62
2023/05/31 05:07:41;;;;;;;14.23;7.82;;;;;;;14.02;83.86;101881.63;4983427;28;20042;-63
2023/05/31 05:10:07;;;;;;;13.63;8.40;;;;;;;14.07;83.87;101878.97;4979064;28;20213;-62
2023/05/31 05:12:32;;;;;;;16.15;8.60;;;;;;;14.13;83.18;101872.91;4991054;28;20034;-62
2023/05/31 05:14:58;;;;;;;14.63;9.02;;;;;;;14.16;83.31;101871.13;4986900;28;20459;-62
2023/05/31 05:17:23;;;;;;;14.68;8.95;;;;;;;14.20;83.17;101878.06;4984701;28;20042;-62
2023/05/31 05:19:48;;;;;;;12.20;7.88;;;;;;;14.26;82.92;101878.03;4980407;28;20503;-62
2023/05/31 05:22:14;;;;;;;12.18;7.97;;;;;;;14.32;83.03;101885.78;4964344;28;20037;-62
2023/05/31 05:24:39;;;;;;;15.95;9.13;;;;;;;14.39;81.69;101877.13;4985967;28;20033;-62
2023/05/31 05:27:06;;;;;;;14.20;6.43;;;;;;;14.48;80.57;101876.19;4983668;28;20458;-63
2023/05/31 05:29:31;;;;;;;13.75;8.23;;;;;;;14.54;78.86;101869.19;4982412;28;20084;-62
2023/05/31 05:31:56;;;;;;;13.50;7.22;;;;;;;14.62;79.03;101869.16;4979308;28;20429;-62
2023/05/31 05:34:22;;;;;;;11.88;6.65;;;;;;;14.68;78.72;101861.31;4981861;28;20053;-63
2023/05/31 05:36:47;;;;;;;11.45;6.03;;;;;;;14.71;78.72;101863.00;4987050;28;20040;-62
2023/05/31 05:39:12;;;;;;;13.95;7.00;;;;;;;14.76;78.90;101874.25;4981872;28;20496;-61
2023/05/31 05:41:38;;;;;;;14.63;6.70;;;;;;;14.82;78.40;101872.47;4980279;28;20042;-62
2023/05/31 05:44:03;;;;;;;13.15;6.60;;;;;;;14.86;78.11;101866.38;4984795;28;20031;-62
2023/05/31 05:46:29;;;;;;;9.07;5.70;;;;;;;14.94;77.14;101863.69;4980412;28;20041;-62
2023/05/31 05:48:54;;;;;;;10.52;5.60;;;;;;;15.02;76.02;101856.66;4980406;28;20041;-63
2023/05/31 05:51:20;;;;;;;13.32;6.20;;;;;;;15.09;76.06;101854.00;4983426;28;20462;-62
2023/05/31 05:53:45;;;;;;;12.10;6.20;;;;;;;15.21;75.67;101856.47;4985569;28;20034;-63
2023/05/31 05:56:11;;;;;;;11.13;6.13;;;;;;;15.28;75.14;101857.28;5015751;28;20034;-62
2023/05/31 05:58:37;;;;;;;7.97;5.50;;;;;;;15.33;74.91;101858.09;4982173;28;20041;-62
2023/05/31 06:01:02;;;;;;;13.57;6.93;;;;;;;15.34;74.38;101857.22;4978881;28;20038;-62
2023/05/31 06:03:30;;;;;;;9.13;6.05;;;;;;;15.39;74.29;101852.81;4990047;28;20034;-62
2023/05/31 06:05:55;;;;;;;11.88;6.20;;;;;;;15.42;74.05;101857.13;4979605;28;20523;-62
2023/05/31 06:08:21;;;;;;;12.70;6.18;;;;;;;15.50;73.94;101855.28;4980847;28;20046;-62
2023/05/31 06:10:46;;;;;;;13.50;6.57;;;;;;;15.53;73.64;101856.13;4979260;28;20054;-62
2023/05/31 06:13:12;;;;;;;12.93;6.80;;;;;;;15.57;73.28;101854.34;4989598;28;20022;-62
2023/05/31 06:15:37;;;;;;;12.43;6.45;;;;;;;15.62;73.77;101858.66;4992855;28;20030;-63
2023/05/31 06:18:03;;;;;;;10.98;6.28;;;;;;;15.73;73.93;101853.34;4982724;28;20099;-62
2023/05/31 06:20:28;;;;;;;9.40;6.10;;;;;;;15.77;73.98;101857.63;4982447;28;20035;-62
2023/05/31 06:22:54;;;;;;;14.63;6.47;;;;;;;15.78;72.65;101846.31;4978428;28;20684;-62
2023/05/31 06:25:20;;;;;;;13.93;5.82;;;;;;;15.82;71.90;101844.53;4987257;28;20046;-62
2023/05/31 06:27:46;;;;;;;13.45;5.90;;;;;;;15.88;71.91;101847.06;4987025;28;20030;-62
2023/05/31 06:30:13;;;;;;;9.13;6.05;;;;;;;15.96;71.62;101842.63;4985875;28;20054;-62
2023/05/31 06:32:38;;;;;;;9.15;5.93;;;;;;;15.99;71.31;101842.56;4995649;28;20034;-63
2023/05/31 06:35:04;;;;;;;14.82;5.95;;;;;;;16.05;71.29;101850.31;4985836;28;20096;-62
2023/05/31 06:37:31;;;;;;;9.63;4.90;;;;;;;16.16;69.30;101819.72;4983353;28;20040;-63
2023/05/31 06:39:57;;;;;;;12.55;4.95;;;;;;;16.25;68.24;101804.81;4975655;28;20038;-63
2023/05/31 06:42:22;;;;;;;8.40;4.68;;;;;;;16.28;67.01;101791.72;4991856;28;20061;-62
2023/05/31 06:44:47;;;;;;;11.00;4.72;;;;;;;16.35;67.08;101789.88;4983039;28;20030;-62
2023/05/31 06:47:13;;;;;;;12.57;5.45;;;;;;;16.43;68.56;101816.69;4983727;28;20037;-63
2023/05/31 06:49:39;;;;;;;12.25;5.88;;;;;;;16.46;67.88;101821.00;4989751;28;20803;-63
2023/05/31 06:52:05;;;;;;;9.15;5.15;;;;;;;16.48;68.42;101814.88;4984831;28;20377;-63
2023/05/31 06:54:36;;;;;;;10.70;5.35;;;;;;;16.56;67.19;101791.28;4990314;28;20053;-63
2023/05/31 06:57:05;;;;;;;9.40;5.38;;;;;;;16.69;67.17;101803.22;4987457;28;20038;-63
2023/05/31 06:59:31;;;;;;;9.60;4.57;;;;;;;16.71;67.14;101799.69;4981248;28;20034;-63
2023/05/31 07:01:56;;;;;;;8.85;4.43;;;;;;;16.77;67.25;101798.78;4983808;28;20092;-62
2023/05/31 07:04:22;;;;;;;12.90;4.75;;;;;;;16.83;67.25;101798.63;4985495;28;20096;-63
2023/05/31 07:06:47;;;;;;;9.88;5.05;;;;;;;16.89;66.44;101790.69;4982081;28;20089;-62
2023/05/31 07:09:13;;;;;;;10.73;4.93;;;;;;;16.99;66.94;101799.22;4980838;28;20460;-62
2023/05/31 07:11:42;;;;;;;10.13;6.00;;;;;;;17.10;66.84;101816.44;4988060;28;20125;-62
2023/05/31 07:14:09;;;;;;;12.52;5.20;;;;;;;17.23;66.54;101798.78;4990044;28;20043;-63
2023/05/31 07:16:34;;;;;;;12.13;5.07;;;;;;;17.30;66.02;101797.78;4983283;28;20062;-63
2023/05/31 07:19:00;;;;;;;11.50;5.55;;;;;;;17.42;65.82;101794.94;4983369;28;20176;-63
2023/05/31 07:21:25;;;;;;;12.05;5.18;;;;;;;17.50;64.77;101774.72;4978052;28;20035;-62
2023/05/31 07:23:51;;;;;;;8.90;4.57;;;;;;;17.55;64.48;101769.38;4981405;28;20408;-63
2023/05/31 07:26:17;;;;;;;13.40;4.75;;;;;;;17.61;64.76;101772.72;4981198;28;20061;-62
2023/05/31 07:28:44;;;;;;;13.25;6.20;;;;;;;17.68;64.36;101773.47;4980793;28;20030;-63
2023/05/31 07:31:10;;;;;;;11.60;5.03;;;;;;;17.76;64.39;101766.31;5013966;28;20034;-62
2023/05/31 07:33:36;;;;;;;10.27;4.57;;;;;;;17.83;63.72;101768.75;4984901;28;20848;-63
2023/05/31 07:36:01;;;;;;;13.57;5.65;;;;;;;18.03;62.41;101743.94;4987230;28;20128;-62
2023/05/31 07:38:27;;;;;;;13.05;3.97;;;;;;;18.12;61.60;101718.41;4981945;28;20040;-75
2023/05/31 07:40:53;;;;;;;11.55;4.72;;;;;;;18.28;62.62;101742.47;4979287;28;20421;-74
2023/05/31 07:43:21;;;;;;;10.70;5.03;;;;;;;18.42;61.54;101725.50;4987958;28;20044;-75
2023/05/31 07:45:48;;;;;;;14.15;4.82;;;;;;;18.48;61.47;101727.09;4983027;28;20031;-74
2023/05/31 07:48:13;;;;;;;11.50;5.18;;;;;;;18.61;61.73;101735.50;4983654;28;20039;-74
2023/05/31 07:50:38;;;;;;;8.68;4.35;;;;;;;18.84;60.60;101706.94;4983253;28;20096;-75
2023/05/31 07:53:04;;;;;;;9.68;4.18;;;;;;;18.94;59.68;101697.94;4983371;28;20033;-74
2023/05/31 07:55:29;;;;;;;15.18;5.28;;;;;;;19.03;58.71;101689.81;4982878;28;20412;-74
2023/05/31 07:57:55;;;;;;;10.57;4.43;;;;;;;18.98;58.33;101689.09;4986321;28;20033;-75
2023/05/31 08:00:20;;;;;;;9.25;4.10;;;;;;;19.11;58.79;101700.97;4987459;28;20030;-75
2023/05/31 08:02:46;;;;;;;10.68;4.25;;;;;;;19.21;59.11;101701.53;4987972;28;20038;-75
2023/05/31 08:05:13;;;;;;;9.27;4.18;;;;;;;19.31;58.78;101697.75;4981863;28;20053;-74
2023/05/31 08:07:38;;;;;;;8.20;3.58;;;;;;;19.39;57.37;101677.41;4982503;28;20149;-74
2023/05/31 08:10:04;;;;;;;11.18;3.85;;;;;;;19.46;57.06;101681.56;4981698;28;20076;-75
2023/05/31 08:12:30;;;;;;;11.30;4.18;;;;;;;19.47;57.29;101694.63;4983265;28;20022;-75
2023/05/31 08:14:55;;;;;;;11.00;4.30;;;;;;;19.55;56.87;101683.91;4982219;28;20601;-75
2023/05/31 08:17:21;;;;;;;13.90;4.10;;;;;;;19.55;57.37;101692.66;4975879;28;20462;-75
2023/05/31 08:19:46;;;;;;;11.23;4.70;;;;;;;19.71;57.90;101705.28;4983750;28;20041;-75
2023/05/31 08:22:12;;;;;;;11.30;4.28;;;;;;;19.88;57.41;101696.00;4985375;28;20034;-76
2023/05/31 08:24:37;;;;;;;8.32;4.03;;;;;;;19.98;55.37;101659.81;4983744;28;20034;-74
2023/05/31 08:27:03;;;;;;;11.35;4.07;;;;;;;20.08;54.22;101646.34;4982939;28;20034;-74
2023/05/31 08:29:28;;;;;;;13.48;3.90;;;;;;;20.22;54.56;101655.50;4982539;28;20038;-75
2023/05/31 08:31:55;;;;;;;7.68;3.60;;;;;;;20.35;53.75;101638.44;4985615;28;20116;-74
2023/05/31 08:34:20;;;;;;;11.20;4.05;;;;;;;20.37;52.87;101632.22;4986487;28;20042;-73
2023/05/31 08:36:47;;;;;;;6.30;3.10;;;;;;;20.49;50.91;101602.03;4980210;28;20040;-75
2023/05/31 08:39:12;;;;;;;8.57;3.40;;;;;;;20.59;49.60;101582.41;4987094;28;20058;-74
2023/05/31 08:42:02;;;;;;;9.70;3.35;;;;;;;20.68;49.02;101577.69;4986540;28;20108;-75
2023/05/31 08:44:28;;;;;;;7.05;3.40;;;;;;;20.72;49.00;101581.06;4987022;28;20054;-74
2023/05/31 08:47:16;;;;;;;7.00;3.45;;;;;;;20.80;49.14;101589.53;4990668;28;20523;-75
2023/05/31 08:49:44;;;;;;;7.55;2.80;;;;;;;20.88;49.46;101592.72;4992298;28;20116;-75
2023/05/31 08:52:10;;;;;;;8.82;3.25;;;;;;;20.95;49.55;101599.47;4981899;28;20089;-75
2023/05/31 08:54:37;;;;;;;6.28;2.67;;;;;;;21.00;49.18;101591.41;4982721;28;20034;-75
2023/05/31 08:57:03;;;;;;;5.30;2.92;;;;;;;21.15;49.50;101589.03;4983924;28;20101;-76
2023/05/31 08:59:30;;;;;;;9.43;2.78;;;;;;;21.33;47.67;101563.78;4988860;28;20181;-75
2023/05/31 09:01:57;;;;;;;8.57;3.03;;;;;;;21.33;47.34;101561.16;4982264;28;20034;-75
2023/05/31 09:04:24;;;;;;;11.20;3.50;;;;;;;21.39;47.27;101560.91;4985633;28;20092;-73
2023/05/31 09:06:50;;;;;;;10.27;3.00;;;;;;;21.49;46.58;101543.00;4980580;28;20110;-75
2023/05/31 09:09:15;;;;;;;9.30;3.35;;;;;;;21.50;46.75;101547.31;4977692;28;20046;-75
2023/05/31 09:11:41;;;;;;;9.18;3.15;;;;;;;21.51;46.57;101555.16;4984682;28;20062;-75
2023/05/31 09:14:09;;;;;;;8.75;2.65;;;;;;;21.67;47.56;101573.84;4989230;28;20042;-74
2023/05/31 09:16:35;;;;;;;6.20;2.63;;;;;;;21.88;46.60;101546.59;4982144;28;20569;-74
2023/05/31 09:19:05;;;;;;;8.57;2.60;;;;;;;22.09;42.63;101481.63;4980924;28;20669;-74
2023/05/31 09:21:44;;;;;;;8.93;2.50;;;;;;;22.54;40.98;101469.03;4979890;28;20037;-74
2023/05/31 09:24:12;;;;;;;9.20;2.47;;;;;;;22.74;41.28;101492.66;4981875;28;20105;-74
2023/05/31 09:26:56;;;;;;;5.68;2.47;;;;;;;22.78;36.86;101448.56;4984462;28;20038;-75
2023/05/31 09:29:22;;;;;;;5.43;2.25;;;;;;;22.89;37.26;101465.59;4989149;28;20073;-74
2023/05/31 09:31:47;;;;;;;6.80;2.00;;;;;;;22.96;36.37;101449.47;4985031;28;20511;-74
2023/05/31 09:34:27;;;;;;;5.68;2.30;;;;;;;22.89;35.83;101449.75;4983968;28;20034;-74
2023/05/31 09:36:57;;;;;;;6.40;2.28;;;;;;;22.97;35.10;101438.84;4983301;28;20076;-74
2023/05/31 09:39:23;;;;;;;12.27;2.05;;;;;;;22.98;36.32;101472.19;4983505;28;20097;-74
2023/05/31 09:41:50;;;;;;;5.35;1.73;;;;;;;23.31;37.45;101496.09;4984423;28;20744;-75
2023/05/31 09:44:16;;;;;;;7.78;2.55;;;;;;;23.44;36.69;101487.50;4983340;28;20109;-74
2023/05/31 09:46:41;;;;;;;4.38;2.10;;;;;;;23.66;35.29;101460.03;4981083;28;20147;-75
2023/05/31 09:49:09;;;;;;;4.72;1.85;;;;;;;23.74;35.68;101461.34;4981298;28;20035;-76
2023/05/31 09:51:35;;;;;;;4.90;2.33;;;;;;;23.60;35.02;101457.72;4981356;28;20688;-75
2023/05/31 09:54:07;;;;;;;6.22;1.75;;;;;;;23.47;34.37;101452.19;4982869;28;20070;-74
2023/05/31 09:56:36;;;;;;;12.43;2.10;;;;;;;23.45;35.09;101469.91;4980428;28;20115;-75
2023/05/31 09:59:03;;;;;;;6.63;2.03;;;;;;;23.55;36.06;101478.19;4993266;28;20034;-74
2023/05/31 10:01:29;;;;;;;6.35;2.30;;;;;;;23.77;34.74;101442.69;4986951;28;20046;-73
2023/05/31 10:03:55;;;;;;;9.57;2.45;;;;;;;23.82;35.27;101460.94;4987618;28;20197;-74
2023/05/31 10:06:21;;;;;;;5.55;2.13;;;;;;;23.75;34.04;101439.28;4982778;28;20050;-73
2023/05/31 10:08:47;;;;;;;4.70;1.88;;;;;;;23.77;33.27;101434.78;4982020;28;20050;-62
2023/05/31 10:11:17;;;;;;;5.55;2.00;;;;;;;23.72;33.67;101433.31;4985587;28;20042;-62
2023/05/31 10:13:44;;;;;;;5.05;1.88;;;;;;;23.78;33.98;101444.38;4977342;28;20030;-62
2023/05/31 10:16:11;;;;;;;5.95;2.08;;;;;;;23.87;32.97;101432.50;4981786;28;20117;-62
2023/05/31 10:18:40;;;;;;;5.35;2.38;;;;;;;23.77;33.59;101440.06;4985333;28;20037;-62
2023/05/31 10:21:12;;;;;;;4.93;1.92;;;;;;;23.97;34.17;101452.25;4980241;28;20034;-63
2023/05/31 10:23:49;;;;;;;5.10;2.03;;;;;;;24.26;34.14;101454.16;4978450;28;20079;-63
2023/05/31 10:26:17;;;;;;;6.55;2.08;;;;;;;24.35;33.62;101436.97;4975487;28;20034;-63
2023/05/31 10:29:09;;;;;;;4.47;1.70;;;;;;;24.42;33.95;101449.78;4975832;28;20121;-62
2023/05/31 10:31:41;;;;;;;6.45;2.33;;;;;;;24.56;33.39;101441.06;4980828;28;20089;-62
2023/05/31 10:34:20;;;;;;;5.20;2.17;;;;;;;24.69;34.36;101442.13;4984566;28;20022;-62
2023/05/31 10:36:46;;;;;;;5.63;2.08;;;;;;;24.83;33.02;101434.28;4980048;28;20026;-62
2023/05/31 10:39:48;;;;;;;3.88;1.70;;;;;;;24.89;33.33;101441.00;4977901;28;20038;-63
2023/05/31 10:42:44;;;;;;;4.78;1.75;;;;;;;24.75;32.55;101422.44;4991720;28;20093;-62
2023/05/31 10:45:12;;;;;;;7.10;2.13;;;;;;;24.98;33.32;101443.13;4977490;28;20654;-62
2023/05/31 10:47:49;;;;;;;5.50;1.90;;;;;;;24.73;31.45;101411.09;4979617;28;20105;-62
2023/05/31 10:50:20;;;;;;;4.60;1.48;;;;;;;24.72;31.89;101401.44;4980079;28;20034;-62
2023/05/31 10:52:48;;;;;;;3.88;2.28;;;;;;;24.95;32.02;101425.63;4978424;28;20092;-62
2023/05/31 10:55:22;;;;;;;5.32;2.15;;;;;;;24.85;31.09;101415.66;4982826;28;20026;-62
2023/05/31 10:57:53;;;;;;;4.63;1.88;;;;;;;24.88;31.12;101407.53;4984634;28;20072;-63
2023/05/31 11:00:20;;;;;;;5.75;1.90;;;;;;;25.20;31.74;101433.00;4986364;28;20062;-63
2023/05/31 11:02:51;;;;;;;7.55;1.77;;;;;;;25.29;30.19;101399.88;4988256;28;20144;-63
2023/05/31 11:05:27;;;;;;;4.47;1.90;;;;;;;25.47;30.23;101398.81;4982984;28;20041;-64
2023/05/31 11:07:54;;;;;;;10.98;2.13;;;;;;;25.36;30.85;101417.91;4985847;28;20030;-63
2023/05/31 11:10:32;;;;;;;7.18;1.90;;;;;;;25.46;30.63;101408.53;4985074;28;20157;-62
2023/05/31 11:13:02;;;;;;;7.30;1.63;;;;;;;25.42;30.84;101417.59;4981399;28;20023;-64
2023/05/31 11:15:45;;;;;;;3.45;1.70;;;;;;;25.49;30.72;101413.66;4987474;28;20034;-62
2023/05/31 11:18:20;;;;;;;5.55;2.05;;;;;;;25.80;29.79;101404.66;4979827;28;20403;-63
2023/05/31 11:20:46;;;;;;;8.23;2.20;;;;;;;25.84;29.32;101386.78;4982704;28;20038;-63